createdAt,value
2022-07-26T00:00:16.741Z,98216.16
2022-07-26T00:02:47.194Z,98216.28
2022-07-26T00:05:15.820Z,98229.81
2022-07-26T00:07:42.666Z,98233.03
2022-07-26T00:10:09.556Z,98239.50
2022-07-26T00:12:36.743Z,98244.28
2022-07-26T00:15:06.101Z,98250.13
2022-07-26T00:17:32.771Z,98248.31
2022-07-26T00:19:59.647Z,98253.44
2022-07-26T00:22:41.604Z,98248.81
2022-07-26T00:25:09.627Z,98258.00
2022-07-26T00:27:37.306Z,98253.06
2022-07-26T00:30:07.703Z,98262.06
2022-07-26T00:32:34.611Z,98268.44
2022-07-26T00:35:01.412Z,98275.41
2022-07-26T00:37:28.201Z,98284.63
2022-07-26T00:39:54.924Z,98284.41
2022-07-26T00:42:21.601Z,98290.56
2022-07-26T00:44:48.353Z,98300.75
2022-07-26T00:47:15.688Z,98308.22
2022-07-26T00:49:43.275Z,98309.34
2022-07-26T00:52:11.605Z,98318.38
2022-07-26T00:54:40.231Z,98319.38
2022-07-26T00:57:06.950Z,98312.69
2022-07-26T00:59:33.762Z,98314.28
2022-07-26T01:02:02.061Z,98309.38
2022-07-26T01:04:29.099Z,98308.91
2022-07-26T01:06:56.253Z,98301.41
2022-07-26T01:09:23.370Z,98306.91
2022-07-26T01:11:51.328Z,98299.75
2022-07-26T01:14:22.514Z,98296.81
2022-07-26T01:16:49.579Z,98303.38
2022-07-26T01:19:17.060Z,98304.91
2022-07-26T01:21:44.292Z,98313.56
2022-07-26T01:24:11.229Z,98312.84
2022-07-26T01:26:38.199Z,98320.63
2022-07-26T01:29:05.482Z,98318.69
2022-07-26T01:31:32.287Z,98326.34
2022-07-26T01:33:59.262Z,98329.13
2022-07-26T01:36:26.116Z,98328.91
2022-07-26T01:38:52.906Z,98330.81
2022-07-26T01:41:22.801Z,98331.22
2022-07-26T01:44:06.057Z,98327.81
2022-07-26T01:46:33.797Z,98323.94
2022-07-26T01:49:01.710Z,98313.13
2022-07-26T01:51:28.745Z,98305.41
2022-07-26T01:53:55.510Z,98303.03
2022-07-26T01:56:22.302Z,98298.56
2022-07-26T01:58:50.026Z,98296.53
2022-07-26T02:01:16.874Z,98297.56
2022-07-26T02:04:03.278Z,98295.94
2022-07-26T02:06:29.956Z,98281.00
2022-07-26T02:08:56.561Z,98273.66
2022-07-26T02:11:23.332Z,98270.00
2022-07-26T02:13:53.065Z,98267.38
2022-07-26T02:16:20.185Z,98267.47
2022-07-26T02:18:47.043Z,98261.00
2022-07-26T02:21:13.729Z,98258.81
2022-07-26T02:23:41.937Z,98254.59
2022-07-26T02:26:09.405Z,98254.38
2022-07-26T02:28:36.100Z,98249.22
2022-07-26T02:31:02.970Z,98255.19
2022-07-26T02:33:29.763Z,98255.91
2022-07-26T02:35:56.526Z,98245.47
2022-07-26T02:38:23.162Z,98248.50
2022-07-26T02:40:52.867Z,98241.59
2022-07-26T02:43:20.021Z,98238.84
2022-07-26T02:46:01.574Z,98234.47
2022-07-26T02:48:31.020Z,98235.84
2022-07-26T02:50:57.837Z,98234.41
2022-07-26T02:53:24.502Z,98243.03
2022-07-26T02:55:51.130Z,98236.81
2022-07-26T02:58:19.971Z,98220.31
2022-07-26T03:00:46.637Z,98204.53
2022-07-26T03:03:14.388Z,98206.59
2022-07-26T03:05:41.505Z,98235.63
2022-07-26T03:08:08.810Z,98238.25
2022-07-26T03:10:35.635Z,98238.59
2022-07-26T03:13:02.519Z,98239.97
2022-07-26T03:15:29.419Z,98225.94
2022-07-26T03:17:56.190Z,98218.94
2022-07-26T03:20:23.058Z,98215.66
2022-07-26T03:22:49.794Z,98210.00
2022-07-26T03:25:16.550Z,98216.91
2022-07-26T03:27:43.521Z,98217.47
2022-07-26T03:30:11.024Z,98213.91
2022-07-26T03:32:37.917Z,98220.59
2022-07-26T03:35:06.295Z,98212.53
2022-07-26T03:37:45.758Z,98218.13
2022-07-26T03:40:14.991Z,98219.00
2022-07-26T03:42:41.677Z,98209.41
2022-07-26T03:45:09.408Z,98219.78
2022-07-26T03:47:37.241Z,98205.41
2022-07-26T03:50:05.593Z,98190.09
2022-07-26T03:52:32.246Z,98189.88
2022-07-26T03:54:59.067Z,98185.19
2022-07-26T03:57:25.736Z,98205.25
2022-07-26T03:59:58.405Z,98202.06
2022-07-26T04:02:25.117Z,98208.47
2022-07-26T04:04:51.810Z,98200.25
2022-07-26T04:07:18.433Z,98187.03
2022-07-26T04:09:45.914Z,98193.94
2022-07-26T04:12:12.582Z,98218.22
2022-07-26T04:14:42.531Z,98190.88
2022-07-26T04:17:09.490Z,98194.44
2022-07-26T04:19:39.817Z,98204.25
2022-07-26T04:22:07.060Z,98197.06
2022-07-26T04:24:33.753Z,98191.41
2022-07-26T04:27:00.463Z,98190.50
2022-07-26T04:29:27.195Z,98195.59
2022-07-26T04:31:53.813Z,98193.41
2022-07-26T04:34:20.487Z,98193.41
2022-07-26T04:36:47.140Z,98203.09
2022-07-26T04:39:13.756Z,98183.81
2022-07-26T04:41:40.418Z,98201.56
2022-07-26T04:44:07.435Z,98191.88
2022-07-26T04:46:34.311Z,98197.72
2022-07-26T04:49:01.132Z,98194.50
2022-07-26T04:51:27.845Z,98197.19
2022-07-26T04:53:54.549Z,98196.09
2022-07-26T04:56:21.233Z,98193.13
2022-07-26T04:58:47.984Z,98189.84
2022-07-26T05:01:15.145Z,98183.44
2022-07-26T05:03:41.996Z,98206.72
2022-07-26T05:06:08.708Z,98197.34
2022-07-26T05:08:35.413Z,98195.75
2022-07-26T05:11:02.144Z,98192.63
2022-07-26T05:13:29.813Z,98198.72
2022-07-26T05:15:57.915Z,98191.44
2022-07-26T05:18:25.735Z,98191.75
2022-07-26T05:20:52.667Z,98198.13
2022-07-26T05:23:20.654Z,98208.59
2022-07-26T05:25:47.541Z,98208.59
2022-07-26T05:28:14.424Z,98210.13
2022-07-26T05:30:41.144Z,98207.13
2022-07-26T05:33:08.022Z,98209.25
2022-07-26T05:35:34.720Z,98210.53
2022-07-26T05:38:02.009Z,98217.31
2022-07-26T05:40:28.788Z,98217.13
2022-07-26T05:42:55.740Z,98214.97
2022-07-26T05:45:22.586Z,98213.97
2022-07-26T05:47:51.006Z,98208.63
2022-07-26T05:50:17.927Z,98211.19
2022-07-26T05:52:44.860Z,98210.00
2022-07-26T05:55:11.600Z,98211.19
2022-07-26T05:57:41.567Z,98219.25
2022-07-26T06:00:10.013Z,98218.97
2022-07-26T06:02:36.832Z,98218.16
2022-07-26T06:05:03.929Z,98221.34
2022-07-26T06:07:30.676Z,98222.97
2022-07-26T06:09:57.347Z,98221.88
2022-07-26T06:12:24.173Z,98223.81
2022-07-26T06:14:50.933Z,98218.50
2022-07-26T06:17:17.699Z,98217.91
2022-07-26T06:19:47.731Z,98212.22
2022-07-26T06:22:14.990Z,98210.13
2022-07-26T06:24:41.678Z,98210.34
2022-07-26T06:27:08.417Z,98212.47
2022-07-26T06:29:35.059Z,98212.09
2022-07-26T06:32:02.142Z,98220.78
2022-07-26T06:34:29.004Z,98221.78
2022-07-26T06:36:55.737Z,98229.38
2022-07-26T06:39:22.414Z,98222.16
2022-07-26T06:41:49.123Z,98221.78
2022-07-26T06:44:15.759Z,98219.09
2022-07-26T06:46:42.407Z,98228.94
2022-07-26T06:49:09.188Z,98226.34
2022-07-26T06:51:35.878Z,98223.72
2022-07-26T06:54:03.776Z,98221.59
2022-07-26T06:56:30.456Z,98220.88
2022-07-26T06:58:57.091Z,98228.16
2022-07-26T07:01:58.273Z,98220.56
2022-07-26T07:04:11.066Z,98219.91
2022-07-26T07:06:38.009Z,98215.63
2022-07-26T07:09:04.925Z,98222.13
2022-07-26T07:11:35.353Z,98214.72
2022-07-26T07:14:03.328Z,98223.31
2022-07-26T07:16:30.339Z,98221.88
2022-07-26T07:18:57.211Z,98216.53
2022-07-26T07:21:23.911Z,98214.31
2022-07-26T07:23:50.536Z,98216.25
2022-07-26T07:26:17.189Z,98209.75
2022-07-26T07:28:43.856Z,98216.44
2022-07-26T07:31:10.569Z,98218.56
2022-07-26T07:33:52.888Z,98214.16
2022-07-26T07:36:21.434Z,98214.34
2022-07-26T07:38:49.402Z,98217.53
2022-07-26T07:41:16.373Z,98212.56
2022-07-26T07:43:43.066Z,98212.66
2022-07-26T07:46:09.860Z,98213.16
2022-07-26T07:48:37.603Z,98213.78
2022-07-26T07:51:04.389Z,98206.75
2022-07-26T07:53:31.864Z,98215.56
2022-07-26T07:55:58.753Z,98217.38
2022-07-26T07:58:25.764Z,98219.25
2022-07-26T08:00:55.139Z,98213.16
2022-07-26T08:03:22.084Z,98217.75
2022-07-26T08:05:49.850Z,98210.47
2022-07-26T08:08:18.609Z,98209.34
2022-07-26T08:10:51.902Z,98205.44
2022-07-26T08:13:21.294Z,98204.56
2022-07-26T08:15:51.215Z,98199.84
2022-07-26T08:18:18.060Z,98206.66
2022-07-26T08:20:48.686Z,98211.44
2022-07-26T08:23:16.513Z,98210.22
2022-07-26T08:25:55.724Z,98216.75
2022-07-26T08:28:45.574Z,98210.72
2022-07-26T08:31:10.257Z,98212.34
2022-07-26T08:33:37.048Z,98215.53
2022-07-26T08:36:07.775Z,98216.25
2022-07-26T08:38:34.564Z,98223.72
2022-07-26T08:41:01.279Z,98224.78
2022-07-26T08:43:28.998Z,98217.38
2022-07-26T08:46:04.177Z,98224.56
2022-07-26T08:48:31.017Z,98220.84
2022-07-26T08:50:59.788Z,98223.81
2022-07-26T08:53:29.846Z,98228.22
2022-07-26T08:56:06.776Z,98223.69
2022-07-26T08:58:36.296Z,98234.94
2022-07-26T09:01:05.923Z,98228.31
2022-07-26T09:03:32.784Z,98232.78
2022-07-26T09:06:12.221Z,98230.25
2022-07-26T09:08:39.300Z,98231.84
2022-07-26T09:11:28.257Z,98242.41
2022-07-26T09:13:54.926Z,98237.59
2022-07-26T09:16:21.741Z,98248.41
2022-07-26T09:18:48.638Z,98244.41
2022-07-26T09:21:31.871Z,98244.91
2022-07-26T09:23:59.608Z,98246.44
2022-07-26T09:26:27.229Z,98246.84
2022-07-26T09:29:10.435Z,98251.34
2022-07-26T09:31:39.183Z,98258.75
2022-07-26T09:34:07.289Z,98255.34
2022-07-26T09:36:51.595Z,98246.94
2022-07-26T09:39:22.731Z,98250.59
2022-07-26T09:42:26.835Z,98244.44
2022-07-26T09:44:56.207Z,98249.38
2022-07-26T09:47:24.176Z,98241.41
2022-07-26T09:50:11.685Z,98252.28
2022-07-26T09:52:38.653Z,98259.28
2022-07-26T09:55:07.724Z,98254.69
2022-07-26T09:57:36.225Z,98253.88
2022-07-26T10:00:05.873Z,98257.53
2022-07-26T10:02:34.694Z,98262.47
2022-07-26T10:05:01.817Z,98257.41
2022-07-26T10:07:28.816Z,98266.56
2022-07-26T10:10:03.587Z,98264.19
2022-07-26T10:12:33.102Z,98263.41
2022-07-26T10:14:59.903Z,98257.34
2022-07-26T10:17:45.907Z,98257.53
2022-07-26T10:20:43.155Z,98257.03
2022-07-26T10:23:36.466Z,98259.41
2022-07-26T10:26:05.753Z,98264.19
2022-07-26T10:28:35.410Z,98259.06
2022-07-26T10:31:25.796Z,98263.69
2022-07-26T10:33:54.853Z,98260.19
2022-07-26T10:36:22.734Z,98261.28
2022-07-26T10:39:06.387Z,98264.50
2022-07-26T10:41:57.397Z,98265.75
2022-07-26T10:44:25.667Z,98260.66
2022-07-26T10:46:56.859Z,98259.59
2022-07-26T10:49:40.644Z,98259.78
2022-07-26T10:52:10.535Z,98255.34
2022-07-26T10:55:07.834Z,98258.88
2022-07-26T10:57:38.326Z,98254.59
2022-07-26T11:00:21.905Z,98260.97
2022-07-26T11:02:53.015Z,98258.72
2022-07-26T11:05:20.415Z,98263.84
2022-07-26T11:08:06.259Z,98269.72
2022-07-26T11:10:37.563Z,98267.97
2022-07-26T11:13:11.145Z,98259.50
2022-07-26T11:15:40.546Z,98265.22
2022-07-26T11:18:12.580Z,98264.72
2022-07-26T11:20:41.039Z,98265.97
2022-07-26T11:23:24.916Z,98267.53
2022-07-26T11:26:12.250Z,98267.41
2022-07-26T11:28:53.016Z,98274.66
2022-07-26T11:31:51.420Z,98270.97
2022-07-26T11:34:18.807Z,98260.16
2022-07-26T11:36:47.424Z,98265.34
2022-07-26T11:39:20.372Z,98258.59
2022-07-26T11:41:47.250Z,98263.31
2022-07-26T11:44:17.307Z,98268.84
2022-07-26T11:46:47.841Z,98267.34
2022-07-26T11:49:18.419Z,98271.59
2022-07-26T11:51:49.261Z,98278.22
2022-07-26T11:54:16.844Z,98268.78
2022-07-26T11:57:07.222Z,98270.25
2022-07-26T11:59:36.491Z,98263.84
2022-07-26T12:02:08.805Z,98261.41
2022-07-26T12:04:39.317Z,98262.53
2022-07-26T12:07:11.581Z,98261.84
2022-07-26T12:09:41.754Z,98261.41
2022-07-26T12:12:10.753Z,98262.22
2022-07-26T12:14:38.937Z,98257.72
2022-07-26T12:17:20.912Z,98261.97
2022-07-26T12:19:47.762Z,98254.19
2022-07-26T12:22:17.362Z,98255.16
2022-07-26T12:24:45.107Z,98250.59
2022-07-26T12:27:14.928Z,98253.06
2022-07-26T12:29:44.755Z,98246.84
2022-07-26T12:32:13.519Z,98244.25
2022-07-26T12:34:42.244Z,98250.44
2022-07-26T12:37:14.596Z,98257.13
2022-07-26T12:39:42.542Z,98259.22
2022-07-26T12:42:34.618Z,98252.06
2022-07-26T12:45:03.154Z,98252.25
2022-07-26T12:47:30.025Z,98257.34
2022-07-26T12:49:56.697Z,98254.94
2022-07-26T12:52:24.014Z,98243.19
2022-07-26T12:54:53.118Z,98242.03
2022-07-26T12:57:21.055Z,98239.78
2022-07-26T12:59:48.845Z,98247.56
2022-07-26T13:02:18.402Z,98255.50
2022-07-26T13:04:45.835Z,98256.94
2022-07-26T13:07:15.721Z,98264.19
2022-07-26T13:09:43.503Z,98258.28
2022-07-26T13:12:11.636Z,98260.13
2022-07-26T13:14:39.200Z,98255.94
2022-07-26T13:17:07.405Z,98267.88
2022-07-26T13:19:35.097Z,98258.91
2022-07-26T13:22:03.096Z,98256.31
2022-07-26T13:24:32.545Z,98247.06
2022-07-26T13:27:00.821Z,98244.75
2022-07-26T13:29:27.898Z,98247.38
2022-07-26T13:31:55.966Z,98251.75
2022-07-26T13:34:24.050Z,98244.44
2022-07-26T13:36:50.893Z,98249.44
2022-07-26T13:39:18.091Z,98241.66
2022-07-26T13:41:44.921Z,98231.06
2022-07-26T13:44:11.994Z,98236.75
2022-07-26T13:46:41.785Z,98233.31
2022-07-26T13:49:08.592Z,98242.28
2022-07-26T13:51:52.769Z,98238.41
2022-07-26T13:54:20.821Z,98230.13
2022-07-26T13:56:47.746Z,98228.72
2022-07-26T13:59:15.639Z,98229.25
2022-07-26T14:01:44.697Z,98234.19
2022-07-26T14:04:13.158Z,98234.53
2022-07-26T14:06:40.853Z,98240.03
2022-07-26T14:09:11.045Z,98239.59
2022-07-26T14:11:38.435Z,98236.59
2022-07-26T14:14:06.298Z,98237.44
2022-07-26T14:16:35.690Z,98235.13
2022-07-26T14:19:02.607Z,98238.38
2022-07-26T14:21:47.072Z,98233.00
2022-07-26T14:24:18.995Z,98228.94
2022-07-26T14:26:47.833Z,98226.06
2022-07-26T14:29:15.174Z,98237.41
2022-07-26T14:31:41.995Z,98231.53
2022-07-26T14:34:08.999Z,98226.75
2022-07-26T14:36:37.130Z,98234.44
2022-07-26T14:39:03.938Z,98224.75
2022-07-26T14:41:31.728Z,98231.75
2022-07-26T14:43:58.573Z,98230.31
2022-07-26T14:46:25.240Z,98235.22
2022-07-26T14:48:54.890Z,98234.25
2022-07-26T14:51:22.254Z,98224.84
2022-07-26T14:53:48.978Z,98233.59
2022-07-26T14:56:15.597Z,98234.09
2022-07-26T14:58:42.366Z,98239.34
2022-07-26T15:01:09.266Z,98228.19
2022-07-26T15:03:36.052Z,98233.28
2022-07-26T15:06:02.838Z,98232.19
2022-07-26T15:08:29.557Z,98223.56
2022-07-26T15:10:56.219Z,98225.16
2022-07-26T15:13:22.988Z,98223.56
2022-07-26T15:15:50.234Z,98225.97
2022-07-26T15:18:16.941Z,98211.94
2022-07-26T15:20:43.856Z,98211.00
2022-07-26T15:23:12.221Z,98204.19
2022-07-26T15:25:38.970Z,98204.19
2022-07-26T15:28:05.722Z,98204.97
2022-07-26T15:30:36.115Z,98199.88
2022-07-26T15:33:02.962Z,98201.31
2022-07-26T15:35:30.044Z,98203.69
2022-07-26T15:37:57.848Z,98189.50
2022-07-26T15:40:24.836Z,98188.41
2022-07-26T15:42:52.899Z,98179.50
2022-07-26T15:45:20.470Z,98186.00
2022-07-26T15:48:03.152Z,98183.78
2022-07-26T15:50:34.793Z,98186.78
2022-07-26T15:53:01.390Z,98187.41
2022-07-26T15:55:28.190Z,98188.34
2022-07-26T15:57:55.047Z,98190.94
2022-07-26T16:00:22.134Z,98186.78
2022-07-26T16:02:52.159Z,98186.63
2022-07-26T16:05:19.000Z,98182.66
2022-07-26T16:07:46.259Z,98186.63
2022-07-26T16:10:14.295Z,98180.91
2022-07-26T16:12:42.177Z,98182.94
2022-07-26T16:15:10.276Z,98184.38
2022-07-26T16:17:37.434Z,98174.03
2022-07-26T16:20:05.342Z,98179.44
2022-07-26T16:22:33.046Z,98174.50
2022-07-26T16:24:59.773Z,98182.94
2022-07-26T16:27:26.477Z,98168.06
2022-07-26T16:29:53.296Z,98177.00
2022-07-26T16:32:21.328Z,98175.25
2022-07-26T16:34:48.357Z,98167.63
2022-07-26T16:37:15.622Z,98174.31
2022-07-26T16:39:42.619Z,98174.41
2022-07-26T16:42:09.460Z,98171.44
2022-07-26T16:44:36.459Z,98174.31
2022-07-26T16:47:04.206Z,98174.66
2022-07-26T16:49:31.313Z,98174.50
2022-07-26T16:51:58.352Z,98178.03
2022-07-26T16:54:25.239Z,98186.28
2022-07-26T16:56:51.997Z,98189.34
2022-07-26T16:59:18.977Z,98185.41
2022-07-26T17:01:45.787Z,98185.72
2022-07-26T17:04:12.642Z,98190.19
2022-07-26T17:06:39.390Z,98185.72
2022-07-26T17:09:06.084Z,98184.28
2022-07-26T17:11:33.116Z,98181.91
2022-07-26T17:13:59.916Z,98181.25
2022-07-26T17:16:27.418Z,98186.34
2022-07-26T17:18:55.382Z,98182.97
2022-07-26T17:21:22.407Z,98171.09
2022-07-26T17:23:50.363Z,98175.72
2022-07-26T17:26:18.769Z,98171.88
2022-07-26T17:28:46.009Z,98180.50
2022-07-26T17:31:12.796Z,98179.69
2022-07-26T17:33:39.652Z,98181.28
2022-07-26T17:36:24.398Z,98176.34
2022-07-26T17:38:52.028Z,98172.84
2022-07-26T17:41:19.878Z,98166.00
2022-07-26T17:43:47.292Z,98170.16
2022-07-26T17:46:14.131Z,98176.00
2022-07-26T17:48:43.947Z,98171.88
2022-07-26T17:51:10.789Z,98178.72
2022-07-26T17:53:37.520Z,98180.78
2022-07-26T17:56:04.493Z,98179.53
2022-07-26T17:58:31.318Z,98185.72
2022-07-26T18:00:58.044Z,98186.66
2022-07-26T18:03:24.935Z,98187.66
2022-07-26T18:05:51.861Z,98178.38
2022-07-26T18:08:18.677Z,98181.56
2022-07-26T18:10:50.690Z,98180.31
2022-07-26T18:13:17.897Z,98186.34
2022-07-26T18:15:44.862Z,98185.06
2022-07-26T18:18:11.664Z,98189.47
2022-07-26T18:20:38.454Z,98183.06
2022-07-26T18:23:05.267Z,98182.88
2022-07-26T18:25:32.090Z,98187.81
2022-07-26T18:28:03.271Z,98185.38
2022-07-26T18:30:33.536Z,98193.34
2022-07-26T18:33:00.342Z,98189.94
2022-07-26T18:35:27.606Z,98196.00
2022-07-26T18:37:54.598Z,98194.53
2022-07-26T18:40:23.640Z,98190.84
2022-07-26T18:42:50.709Z,98197.34
2022-07-26T18:45:17.482Z,98204.03
2022-07-26T18:47:44.292Z,98194.25
2022-07-26T18:50:16.943Z,98203.63
2022-07-26T18:52:44.736Z,98208.38
2022-07-26T18:55:12.928Z,98206.97
2022-07-26T18:57:41.186Z,98205.22
2022-07-26T19:00:14.209Z,98218.84
2022-07-26T19:02:41.933Z,98211.84
2022-07-26T19:05:09.386Z,98216.75
2022-07-26T19:07:37.676Z,98214.41
2022-07-26T19:10:06.520Z,98215.81
2022-07-26T19:12:33.312Z,98219.09
2022-07-26T19:15:00.118Z,98220.94
2022-07-26T19:17:28.001Z,98224.25
2022-07-26T19:19:57.435Z,98221.16
2022-07-26T19:22:25.952Z,98219.06
2022-07-26T19:24:52.860Z,98225.56
2022-07-26T19:27:19.686Z,98224.56
2022-07-26T19:29:46.533Z,98229.00
2022-07-26T19:32:13.179Z,98226.59
2022-07-26T19:34:40.152Z,98232.22
2022-07-26T19:37:06.823Z,98223.03
2022-07-26T19:39:33.551Z,98236.03
2022-07-26T19:42:00.218Z,98235.22
2022-07-26T19:44:27.294Z,98237.94
2022-07-26T19:46:57.469Z,98233.13
2022-07-26T19:49:25.180Z,98233.25
2022-07-26T19:51:52.021Z,98226.59
2022-07-26T19:54:18.877Z,98222.28
2022-07-26T19:56:45.527Z,98230.69
2022-07-26T19:59:12.689Z,98227.00
2022-07-26T20:01:39.769Z,98234.59
2022-07-26T20:04:06.556Z,98235.38
2022-07-26T20:06:33.606Z,98236.66
2022-07-26T20:09:00.301Z,98238.47
2022-07-26T20:11:28.239Z,98234.47
2022-07-26T20:13:55.563Z,98238.16
2022-07-26T20:16:22.427Z,98234.72
2022-07-26T20:18:49.180Z,98233.53
2022-07-26T20:21:16.141Z,98230.31
2022-07-26T20:23:42.951Z,98229.66
2022-07-26T20:26:09.779Z,98237.72
2022-07-26T20:28:38.342Z,98241.84
2022-07-26T20:31:05.149Z,98242.44
2022-07-26T20:33:32.039Z,98244.34
2022-07-26T20:35:58.787Z,98252.41
2022-07-26T20:38:25.554Z,98254.28
2022-07-26T20:40:52.800Z,98263.44
2022-07-26T20:43:22.354Z,98264.75
2022-07-26T20:45:49.646Z,98265.38
2022-07-26T20:48:16.348Z,98260.72
2022-07-26T20:50:43.151Z,98259.75
2022-07-26T20:53:09.932Z,98258.09
2022-07-26T20:55:37.069Z,98260.19
2022-07-26T20:58:03.793Z,98254.78
2022-07-26T21:00:30.632Z,98246.03
2022-07-26T21:02:59.425Z,98257.78
2022-07-26T21:05:30.855Z,98251.94
2022-07-26T21:07:59.974Z,98250.25
2022-07-26T21:10:29.304Z,98252.25
2022-07-26T21:13:00.270Z,98252.88
2022-07-26T21:15:29.220Z,98256.66
2022-07-26T21:17:56.128Z,98250.75
2022-07-26T21:20:22.792Z,98250.97
2022-07-26T21:22:49.498Z,98250.84
2022-07-26T21:25:16.232Z,98248.88
2022-07-26T21:27:43.049Z,98249.91
2022-07-26T21:30:10.256Z,98254.94
2022-07-26T21:32:37.035Z,98256.25
2022-07-26T21:35:04.380Z,98261.28
2022-07-26T21:37:31.157Z,98264.06
2022-07-26T21:39:57.772Z,98260.06
2022-07-26T21:42:27.648Z,98265.28
2022-07-26T21:44:54.323Z,98264.88
2022-07-26T21:47:20.998Z,98262.75
2022-07-26T21:49:47.674Z,98267.63
2022-07-26T21:52:14.479Z,98270.81
2022-07-26T21:54:41.141Z,98264.13
2022-07-26T21:57:07.877Z,98264.25
2022-07-26T21:59:34.613Z,98270.81
2022-07-26T22:02:01.427Z,98268.03
2022-07-26T22:04:28.190Z,98268.34
2022-07-26T22:06:54.820Z,98261.53
2022-07-26T22:09:21.494Z,98256.66
2022-07-26T22:11:48.256Z,98266.13
2022-07-26T22:14:14.958Z,98260.53
2022-07-26T22:16:44.653Z,98260.13
2022-07-26T22:19:11.748Z,98263.22
2022-07-26T22:21:39.724Z,98266.59
2022-07-26T22:24:06.909Z,98272.25
2022-07-26T22:26:33.673Z,98264.06
2022-07-26T22:29:00.562Z,98261.75
2022-07-26T22:31:27.826Z,98257.13
2022-07-26T22:33:54.565Z,98260.63
2022-07-26T22:36:21.277Z,98260.75
2022-07-26T22:38:48.058Z,98264.75
2022-07-26T22:41:14.770Z,98259.28
2022-07-26T22:43:41.500Z,98256.16
2022-07-26T22:46:08.372Z,98255.28
2022-07-26T22:48:38.383Z,98253.16
2022-07-26T22:51:05.479Z,98254.56
2022-07-26T22:53:32.166Z,98244.69
2022-07-26T22:55:58.861Z,98240.69
2022-07-26T22:58:25.538Z,98239.97
2022-07-26T23:00:52.293Z,98236.81
2022-07-26T23:03:21.578Z,98234.28
2022-07-26T23:05:49.931Z,98233.47
2022-07-26T23:11:04.808Z,98240.28
2022-07-26T23:13:31.598Z,98244.13
2022-07-26T23:16:01.288Z,98246.22
2022-07-26T23:18:29.957Z,98261.59
2022-07-26T23:20:56.944Z,98262.72
2022-07-26T23:23:24.991Z,98245.34
2022-07-26T23:25:56.080Z,98242.41
2022-07-26T23:28:35.866Z,98249.22
2022-07-26T23:31:06.406Z,98256.22
2022-07-26T23:33:51.415Z,98254.91
2022-07-26T23:36:19.931Z,98241.16
2022-07-26T23:38:46.579Z,98231.72
2022-07-26T23:41:13.277Z,98237.09
2022-07-26T23:43:39.981Z,98230.72
2022-07-26T23:46:06.653Z,98235.84
2022-07-26T23:48:33.436Z,98231.34
2022-07-26T23:51:00.109Z,98231.44
2022-07-26T23:53:27.427Z,98229.34
2022-07-26T23:55:54.807Z,98236.44
2022-07-26T23:58:21.952Z,98252.06
